createdAt,value
2018-04-25T00:02:09.837Z,13.60
2018-04-25T00:04:37.358Z,13.60
2018-04-25T00:07:04.899Z,13.70
2018-04-25T00:09:32.442Z,13.70
2018-04-25T00:12:00.082Z,13.70
2018-04-25T00:14:27.651Z,13.70
2018-04-25T00:16:55.183Z,13.70
2018-04-25T00:19:22.727Z,13.70
2018-04-25T00:21:51.019Z,13.80
2018-04-25T00:24:18.604Z,13.70
2018-04-25T00:26:46.864Z,13.80
2018-04-25T00:29:14.379Z,13.70
2018-04-25T00:31:41.930Z,13.70
2018-04-25T00:34:09.447Z,13.70
2018-04-25T00:36:36.989Z,13.80
2018-04-25T00:39:04.565Z,13.80
2018-04-25T00:41:32.126Z,13.80
2018-04-25T00:43:59.680Z,13.80
2018-04-25T00:46:27.246Z,13.80
2018-04-25T00:48:54.769Z,13.80
2018-04-25T00:51:23.065Z,13.80
2018-04-25T00:53:50.781Z,13.70
2018-04-25T00:56:19.844Z,13.70
2018-04-25T00:58:47.375Z,13.80
2018-04-25T01:01:14.993Z,13.80
2018-04-25T01:03:43.317Z,13.80
2018-04-25T01:06:10.894Z,13.70
2018-04-25T01:08:38.455Z,13.80
2018-04-25T01:11:05.995Z,13.80
2018-04-25T01:13:33.849Z,13.70
2018-04-25T01:16:01.391Z,13.70
2018-04-25T01:18:29.692Z,13.70
2018-04-25T01:20:57.279Z,13.60
2018-04-25T01:23:24.822Z,13.60
2018-04-25T01:26:01.464Z,13.60
2018-04-25T01:28:31.416Z,13.40
2018-04-25T01:30:59.731Z,13.40
2018-04-25T01:33:28.192Z,13.50
2018-04-25T01:39:10.694Z,13.50
2018-04-25T01:41:38.247Z,13.50
2018-04-25T01:47:12.905Z,13.50
2018-04-25T01:49:41.486Z,13.40
2018-04-25T01:52:21.091Z,13.50
2018-04-25T01:55:01.239Z,13.50
2018-04-25T01:57:41.414Z,13.60
2018-04-25T02:00:20.792Z,13.50
2018-04-25T02:02:48.027Z,13.60
2018-04-25T02:05:15.576Z,13.50
2018-04-25T02:07:43.125Z,13.60
2018-04-25T02:10:10.694Z,13.60
2018-04-25T02:12:38.246Z,13.50
2018-04-25T02:15:05.769Z,13.50
2018-04-25T02:17:34.094Z,13.50
2018-04-25T02:20:01.611Z,13.40
2018-04-25T02:22:29.913Z,13.40
2018-04-25T02:24:57.592Z,13.40
2018-04-25T02:27:25.105Z,13.40
2018-04-25T02:29:53.385Z,13.40
2018-04-25T02:32:20.943Z,13.40
2018-04-25T02:34:48.463Z,13.40
2018-04-25T02:37:15.987Z,13.50
2018-04-25T02:39:43.545Z,13.50
2018-04-25T02:42:11.064Z,13.50
2018-04-25T02:44:39.350Z,13.50
2018-04-25T02:47:07.673Z,13.40
2018-04-25T02:49:35.192Z,13.40
2018-04-25T02:52:02.724Z,13.40
2018-04-25T02:54:30.305Z,13.40
2018-04-25T02:56:57.831Z,13.40
2018-04-25T02:59:25.391Z,13.40
2018-04-25T03:01:52.999Z,13.40
2018-04-25T03:04:20.495Z,13.50
2018-04-25T03:06:48.795Z,13.50
2018-04-25T03:09:17.106Z,13.50
2018-04-25T03:11:44.640Z,13.40
2018-04-25T03:14:12.940Z,13.50
2018-04-25T03:16:40.496Z,13.40
2018-04-25T03:19:08.018Z,13.50
2018-04-25T03:21:35.543Z,13.50
2018-04-25T03:24:03.192Z,13.50
2018-04-25T03:26:30.715Z,13.50
2018-04-25T03:28:58.996Z,13.50
2018-04-25T03:31:26.591Z,13.50
2018-04-25T03:33:54.127Z,13.60
2018-04-25T03:36:22.009Z,13.50
2018-04-25T03:38:49.582Z,13.60
2018-04-25T03:41:17.115Z,13.60
2018-04-25T03:43:44.651Z,13.60
2018-04-25T03:46:12.197Z,13.50
2018-04-25T03:48:40.739Z,13.50
2018-04-25T03:51:08.303Z,13.50
2018-04-25T03:53:35.836Z,13.50
2018-04-25T03:56:03.359Z,13.50
2018-04-25T03:58:31.658Z,13.50
2018-04-25T04:00:59.175Z,13.50
2018-04-25T04:03:27.496Z,13.50
2018-04-25T04:05:55.017Z,13.50
2018-04-25T04:08:23.305Z,13.50
2018-04-25T04:10:51.616Z,13.50
2018-04-25T04:13:19.736Z,13.40
2018-04-25T04:15:48.053Z,13.50
2018-04-25T04:18:15.585Z,13.40
2018-04-25T04:20:43.900Z,13.50
2018-04-25T04:23:11.472Z,13.50
2018-04-25T04:25:39.009Z,13.50
2018-04-25T04:28:06.575Z,13.50
2018-04-25T04:30:34.089Z,13.40
2018-04-25T04:33:02.393Z,13.00
2018-04-25T04:35:29.953Z,12.90
2018-04-25T04:37:57.478Z,12.60
2018-04-25T04:40:25.795Z,12.20
2018-04-25T04:42:53.324Z,12.10
2018-04-25T04:45:21.616Z,12.00
2018-04-25T04:47:49.163Z,11.90
2018-04-25T04:50:16.695Z,11.90
2018-04-25T04:52:44.247Z,11.80
2018-04-25T04:55:11.764Z,11.80
2018-04-25T04:57:39.308Z,11.80
2018-04-25T05:00:06.850Z,11.70
2018-04-25T05:02:34.368Z,11.70
2018-04-25T05:05:02.742Z,11.70
2018-04-25T05:07:30.261Z,11.70
2018-04-25T05:09:57.929Z,11.70
2018-04-25T05:12:25.492Z,11.70
2018-04-25T05:14:53.027Z,11.70
2018-04-25T05:17:20.549Z,11.70
2018-04-25T05:19:48.111Z,11.70
2018-04-25T05:22:15.729Z,11.70
2018-04-25T05:24:43.262Z,11.70
2018-04-25T05:27:10.824Z,11.70
2018-04-25T05:29:38.398Z,11.70
2018-04-25T05:32:06.027Z,11.70
2018-04-25T05:34:33.562Z,11.70
2018-04-25T05:37:01.080Z,11.70
2018-04-25T05:39:28.607Z,11.70
2018-04-25T05:41:56.939Z,11.70
2018-04-25T05:44:24.464Z,11.70
2018-04-25T05:46:51.976Z,11.80
2018-04-25T05:49:19.534Z,11.80
2018-04-25T05:51:47.096Z,11.90
2018-04-25T05:54:14.597Z,11.90
2018-04-25T05:56:42.139Z,12.00
2018-04-25T05:59:09.650Z,12.00
2018-04-25T06:01:37.182Z,12.00
2018-04-25T06:04:04.744Z,12.00
2018-04-25T06:06:32.288Z,11.90
2018-04-25T06:08:59.795Z,11.90
2018-04-25T06:11:27.346Z,11.90
2018-04-25T06:13:54.861Z,11.90
2018-04-25T06:16:22.421Z,11.90
2018-04-25T06:18:50.109Z,11.90
2018-04-25T06:21:18.432Z,11.90
2018-04-25T06:23:46.720Z,12.00
2018-04-25T06:26:14.313Z,11.90
2018-04-25T06:28:41.852Z,12.10
2018-04-25T06:31:09.424Z,12.10
2018-04-25T06:33:36.989Z,12.10
2018-04-25T06:36:04.528Z,12.10
2018-04-25T06:38:32.063Z,12.00
2018-04-25T06:41:00.468Z,11.90
2018-04-25T06:43:27.997Z,11.80
2018-04-25T06:45:56.284Z,12.00
2018-04-25T06:48:23.846Z,11.90
2018-04-25T06:50:51.432Z,11.90
2018-04-25T06:53:18.975Z,11.90
2018-04-25T06:55:46.544Z,11.80
2018-04-25T06:58:14.063Z,11.70
2018-04-25T07:00:42.349Z,11.70
2018-04-25T07:03:09.911Z,11.70
2018-04-25T07:05:37.790Z,11.50
2018-04-25T07:08:05.394Z,11.30
2018-04-25T07:10:32.884Z,11.20
2018-04-25T07:13:00.469Z,11.20
2018-04-25T07:15:27.989Z,11.20
2018-04-25T07:17:56.312Z,11.40
2018-04-25T07:20:23.872Z,11.30
2018-04-25T07:22:51.431Z,11.30
2018-04-25T07:25:18.985Z,11.40
2018-04-25T07:27:46.548Z,11.20
2018-04-25T07:30:14.071Z,11.20
2018-04-25T07:32:42.374Z,11.20
2018-04-25T07:35:09.928Z,11.20
2018-04-25T07:37:37.439Z,11.10
2018-04-25T07:40:04.977Z,11.30
2018-04-25T07:42:32.491Z,11.30
2018-04-25T07:45:00.028Z,11.30
2018-04-25T07:47:28.335Z,11.10
2018-04-25T07:49:55.857Z,11.10
2018-04-25T07:52:24.181Z,11.10
2018-04-25T07:54:51.730Z,11.10
2018-04-25T07:57:20.009Z,11.10
2018-04-25T07:59:47.534Z,11.00
2018-04-25T08:02:15.860Z,11.10
2018-04-25T08:04:43.384Z,11.10
2018-04-25T08:07:10.966Z,11.30
2018-04-25T08:09:38.521Z,11.30
2018-04-25T08:12:17.788Z,11.40
2018-04-25T08:14:56.966Z,11.60
2018-04-25T08:17:36.248Z,11.50
2018-04-25T08:23:02.420Z,11.30
2018-04-25T08:25:30.730Z,11.40
2018-04-25T08:27:58.261Z,11.30
2018-04-25T08:30:26.544Z,11.30
2018-04-25T08:32:54.903Z,11.20
2018-04-25T08:35:22.505Z,11.20
2018-04-25T08:37:50.035Z,11.40
2018-04-25T08:40:18.352Z,11.50
2018-04-25T08:42:45.895Z,11.50
2018-04-25T08:45:13.428Z,11.50
2018-04-25T08:47:41.731Z,11.20
2018-04-25T08:50:09.250Z,11.10
2018-04-25T08:52:37.552Z,11.60
2018-04-25T08:55:05.107Z,11.50
2018-04-25T08:57:32.617Z,11.60
2018-04-25T09:00:00.134Z,11.60
2018-04-25T09:02:27.694Z,11.60
2018-04-25T09:04:55.213Z,12.00
2018-04-25T09:07:22.751Z,12.30
2018-04-25T09:09:51.825Z,12.40
2018-04-25T09:12:19.353Z,12.40
2018-04-25T09:14:46.875Z,12.60
2018-04-25T09:17:14.435Z,12.80
2018-04-25T09:19:42.146Z,12.90
2018-04-25T09:22:09.663Z,12.50
2018-04-25T09:24:38.011Z,11.80
2018-04-25T09:27:05.544Z,11.70
2018-04-25T09:29:33.554Z,11.60
2018-04-25T09:32:01.487Z,11.80
2018-04-25T09:34:29.085Z,11.90
2018-04-25T09:36:56.541Z,11.70
2018-04-25T09:39:24.086Z,11.90
2018-04-25T09:41:51.586Z,12.00
2018-04-25T09:44:19.176Z,12.00
2018-04-25T09:46:46.739Z,11.90
2018-04-25T09:49:14.293Z,11.70
2018-04-25T09:51:41.861Z,11.60
2018-04-25T09:54:09.397Z,11.80
2018-04-25T09:56:36.911Z,12.10
2018-04-25T09:59:04.438Z,12.20
2018-04-25T10:01:31.987Z,12.30
2018-04-25T10:03:59.532Z,12.30
2018-04-25T10:06:27.082Z,12.20
2018-04-25T10:08:54.629Z,11.60
2018-04-25T10:11:22.151Z,11.40
2018-04-25T10:13:49.800Z,11.50
2018-04-25T10:16:17.355Z,11.50
2018-04-25T10:18:44.898Z,11.30
2018-04-25T10:21:12.428Z,11.30
2018-04-25T10:23:40.018Z,11.20
2018-04-25T10:26:07.530Z,11.20
2018-04-25T10:28:35.811Z,11.40
2018-04-25T10:31:04.130Z,11.70
2018-04-25T10:33:31.668Z,11.60
2018-04-25T10:35:59.180Z,12.00
2018-04-25T10:38:26.722Z,12.30
2018-04-25T10:40:54.246Z,12.10
2018-04-25T10:43:21.813Z,12.20
2018-04-25T10:45:49.373Z,12.30
2018-04-25T10:48:16.899Z,12.50
2018-04-25T10:50:44.423Z,12.70
2018-04-25T10:53:11.972Z,12.90
2018-04-25T10:55:39.476Z,12.90
2018-04-25T10:58:06.993Z,12.90
2018-04-25T11:00:34.537Z,13.10
2018-04-25T11:03:02.072Z,13.20
2018-04-25T11:05:29.597Z,12.80
2018-04-25T11:07:57.915Z,12.50
2018-04-25T11:10:25.471Z,12.40
2018-04-25T11:12:53.000Z,12.50
2018-04-25T11:15:21.202Z,12.50
2018-04-25T11:17:48.752Z,12.60
2018-04-25T11:20:16.272Z,12.70
2018-04-25T11:22:44.582Z,12.80
2018-04-25T11:25:12.104Z,12.80
2018-04-25T11:27:40.385Z,12.80
2018-04-25T11:30:08.698Z,12.70
2018-04-25T11:32:36.209Z,12.70
2018-04-25T11:35:04.505Z,12.10
2018-04-25T11:37:32.073Z,12.00
2018-04-25T11:39:59.642Z,11.90
2018-04-25T11:42:27.168Z,12.00
2018-04-25T11:44:55.484Z,11.80
2018-04-25T11:47:23.007Z,11.80
2018-04-25T11:49:51.306Z,12.70
2018-04-25T11:52:18.861Z,12.60
2018-04-25T11:54:46.529Z,12.90
2018-04-25T11:57:14.085Z,12.70
2018-04-25T11:59:41.699Z,12.70
2018-04-25T12:02:09.204Z,12.70
2018-04-25T12:04:36.763Z,13.00
2018-04-25T12:07:04.328Z,13.20
2018-04-25T12:09:31.845Z,13.10
2018-04-25T12:12:00.128Z,12.50
2018-04-25T12:14:28.457Z,12.50
2018-04-25T12:16:56.066Z,12.40
2018-04-25T12:19:24.356Z,11.90
2018-04-25T12:21:51.917Z,11.90
2018-04-25T12:24:19.577Z,11.90
2018-04-25T12:26:47.055Z,11.90
2018-04-25T12:29:14.621Z,11.80
2018-04-25T12:31:42.169Z,11.70
2018-04-25T12:34:09.732Z,12.00
2018-04-25T12:36:37.392Z,12.60
2018-04-25T12:39:04.911Z,13.00
2018-04-25T12:41:33.203Z,13.20
2018-04-25T12:44:00.763Z,13.20
2018-04-25T12:46:28.281Z,13.20
2018-04-25T12:48:55.816Z,12.90
2018-04-25T12:51:23.432Z,12.90
2018-04-25T12:53:50.972Z,13.10
2018-04-25T12:56:19.308Z,12.60
2018-04-25T12:58:46.957Z,12.50
2018-04-25T13:01:14.487Z,12.50
2018-04-25T13:03:42.064Z,12.40
2018-04-25T13:06:09.618Z,12.20
2018-04-25T13:08:37.169Z,12.10
2018-04-25T13:11:04.694Z,12.00
2018-04-25T13:13:33.021Z,11.90
2018-04-25T13:16:00.541Z,11.90
2018-04-25T13:18:29.073Z,11.90
2018-04-25T13:20:56.629Z,11.90
2018-04-25T13:23:24.169Z,12.00
2018-04-25T13:25:51.725Z,11.80
2018-04-25T13:28:19.237Z,11.70
2018-04-25T13:30:46.763Z,11.70
2018-04-25T13:33:14.303Z,11.70
2018-04-25T13:35:41.835Z,11.90
2018-04-25T13:38:09.385Z,12.00
2018-04-25T13:40:37.703Z,12.40
2018-04-25T13:43:05.213Z,12.30
2018-04-25T13:45:33.545Z,12.70
2018-04-25T13:48:01.093Z,12.60
2018-04-25T13:50:28.643Z,13.10
2018-04-25T13:52:56.158Z,13.10
2018-04-25T13:55:24.477Z,13.70
2018-04-25T13:57:52.036Z,13.70
2018-04-25T14:00:19.603Z,13.40
2018-04-25T14:02:47.196Z,13.20
2018-04-25T14:05:15.508Z,13.50
2018-04-25T14:07:43.041Z,13.50
2018-04-25T14:10:11.334Z,13.60
2018-04-25T14:12:39.621Z,13.60
2018-04-25T14:15:07.146Z,13.50
2018-04-25T14:17:34.762Z,13.60
2018-04-25T14:20:02.452Z,13.70
2018-04-25T14:22:29.965Z,14.20
2018-04-25T14:24:57.500Z,15.10
2018-04-25T14:27:25.826Z,16.90
2018-04-25T14:29:54.536Z,17.30
2018-04-25T14:32:23.697Z,16.00
2018-04-25T14:34:51.214Z,15.90
2018-04-25T14:37:19.548Z,14.40
2018-04-25T14:39:47.092Z,14.30
2018-04-25T14:42:14.644Z,13.70
2018-04-25T14:44:42.202Z,13.60
2018-04-25T14:47:09.715Z,13.40
2018-04-25T14:49:37.244Z,13.30
2018-04-25T14:52:04.784Z,13.00
2018-04-25T14:54:32.393Z,12.90
2018-04-25T14:56:59.870Z,12.60
2018-04-25T14:59:28.166Z,11.90
2018-04-25T15:01:55.694Z,11.90
2018-04-25T15:04:24.025Z,10.20
2018-04-25T15:06:51.550Z,10.20
2018-04-25T15:09:19.067Z,9.80
2018-04-25T15:11:47.399Z,9.60
2018-04-25T15:14:14.919Z,9.50
2018-04-25T15:16:43.210Z,9.80
2018-04-25T15:19:10.771Z,9.70
2018-04-25T15:21:38.300Z,10.10
2018-04-25T15:24:06.591Z,11.20
2018-04-25T15:26:34.922Z,12.00
2018-04-25T15:29:02.456Z,12.00
2018-04-25T15:31:30.020Z,12.70
2018-04-25T15:33:57.558Z,14.20
2018-04-25T15:36:25.087Z,15.50
2018-04-25T15:38:52.610Z,16.30
2018-04-25T15:41:20.145Z,16.60
2018-04-25T15:43:47.659Z,17.00
2018-04-25T15:46:15.174Z,16.20
2018-04-25T15:48:42.716Z,16.30
2018-04-25T15:51:10.255Z,16.50
2018-04-25T15:53:37.773Z,15.80
2018-04-25T15:56:05.334Z,16.40
2018-04-25T15:58:33.642Z,16.50
2018-04-25T16:01:02.167Z,15.90
2018-04-25T16:03:29.728Z,15.90
2018-04-25T16:05:57.244Z,14.90
2018-04-25T16:08:25.546Z,13.80
2018-04-25T16:10:53.106Z,13.70
2018-04-25T16:13:20.708Z,14.00
2018-04-25T16:15:48.327Z,13.90
2018-04-25T16:18:15.870Z,15.10
2018-04-25T16:20:43.380Z,16.60
2018-04-25T16:23:10.902Z,17.30
2018-04-25T16:25:38.443Z,17.50
2018-04-25T16:28:05.972Z,17.90
2018-04-25T16:30:34.267Z,18.90
2018-04-25T16:33:01.814Z,18.80
2018-04-25T16:35:30.097Z,17.60
2018-04-25T16:37:58.403Z,17.40
2018-04-25T16:40:25.948Z,17.30
2018-04-25T16:42:53.476Z,16.40
2018-04-25T16:45:21.797Z,15.40
2018-04-25T16:47:49.374Z,15.30
2018-04-25T16:50:16.939Z,16.00
2018-04-25T16:52:44.490Z,16.50
2018-04-25T16:55:12.059Z,16.70
2018-04-25T16:57:39.575Z,16.40
2018-04-25T17:00:07.113Z,17.10
2018-04-25T17:02:35.414Z,18.10
2018-04-25T17:05:02.969Z,18.00
2018-04-25T17:07:30.487Z,18.00
2018-04-25T17:09:58.045Z,18.30
2018-04-25T17:12:25.654Z,18.80
2018-04-25T17:14:53.313Z,18.90
2018-04-25T17:17:20.798Z,18.60
2018-04-25T17:19:48.346Z,18.80
2018-04-25T17:22:15.853Z,19.10
2018-04-25T17:24:44.180Z,16.90
2018-04-25T17:27:11.702Z,16.80
2018-04-25T17:29:39.223Z,15.60
2018-04-25T17:32:06.785Z,15.00
2018-04-25T17:34:34.316Z,14.70
2018-04-25T17:37:01.848Z,15.30
2018-04-25T17:39:29.385Z,15.20
2018-04-25T17:41:57.678Z,14.50
2018-04-25T17:44:25.199Z,14.40
2018-04-25T17:46:52.762Z,14.90
2018-04-25T17:49:21.069Z,15.00
2018-04-25T17:51:48.618Z,14.90
2018-04-25T17:54:16.181Z,14.60
2018-04-25T17:56:43.697Z,14.10
2018-04-25T17:59:11.207Z,13.60
2018-04-25T18:01:38.759Z,13.60
2018-04-25T18:04:06.271Z,14.40
2018-04-25T18:06:33.852Z,14.50
2018-04-25T18:09:01.418Z,14.30
2018-04-25T18:11:29.738Z,13.60
2018-04-25T18:13:57.248Z,13.60
2018-04-25T18:16:25.576Z,13.10
2018-04-25T18:18:53.849Z,13.10
2018-04-25T18:21:21.370Z,12.90
2018-04-25T18:23:49.697Z,12.70
2018-04-25T18:26:17.232Z,12.70
2018-04-25T18:28:44.795Z,12.50
2018-04-25T18:31:12.354Z,12.20
2018-04-25T18:33:39.891Z,12.10
2018-04-25T18:36:07.419Z,11.90
2018-04-25T18:38:35.757Z,11.40
2018-04-25T18:41:03.299Z,11.40
2018-04-25T18:43:30.866Z,11.40
2018-04-25T18:45:58.438Z,11.30
2018-04-25T18:48:25.967Z,11.30
2018-04-25T18:50:53.487Z,11.20
2018-04-25T18:53:21.035Z,11.00
2018-04-25T18:55:48.575Z,10.90
2018-04-25T18:58:16.887Z,10.60
2018-04-25T19:00:45.194Z,10.60
2018-04-25T19:03:12.773Z,10.60
2018-04-25T19:05:40.432Z,10.60
2018-04-25T19:08:08.003Z,10.60
2018-04-25T19:10:35.532Z,10.40
2018-04-25T19:13:03.119Z,10.30
2018-04-25T19:15:30.765Z,10.00
2018-04-25T19:17:58.313Z,9.90
2018-04-25T19:20:25.826Z,9.60
2018-04-25T19:22:53.369Z,9.40
2018-04-25T19:25:22.475Z,9.20
2018-04-25T19:27:50.806Z,9.10
2018-04-25T19:30:18.485Z,9.00
2018-04-25T19:32:45.994Z,8.90
2018-04-25T19:35:13.516Z,8.80
2018-04-25T19:37:41.051Z,8.70
2018-04-25T19:40:08.558Z,8.50
2018-04-25T19:42:36.830Z,8.40
2018-04-25T19:45:05.133Z,8.60
2018-04-25T19:47:32.643Z,8.50
2018-04-25T19:50:00.234Z,8.70
2018-04-25T19:52:27.747Z,8.70
2018-04-25T19:54:55.282Z,8.70
2018-04-25T19:57:23.793Z,8.70
2018-04-25T19:59:51.305Z,8.70
2018-04-25T20:02:18.819Z,8.80
2018-04-25T20:04:46.343Z,8.70
2018-04-25T20:07:13.911Z,8.50
2018-04-25T20:09:41.425Z,8.30
2018-04-25T20:12:09.691Z,7.90
2018-04-25T20:14:38.034Z,7.80
2018-04-25T20:17:05.574Z,7.70
2018-04-25T20:19:33.118Z,7.70
2018-04-25T20:22:00.654Z,7.70
2018-04-25T20:24:28.253Z,7.80
2018-04-25T20:26:55.769Z,7.80
2018-04-25T20:29:23.327Z,7.90
2018-04-25T20:31:51.609Z,8.00
2018-04-25T20:34:19.128Z,7.90
2018-04-25T20:36:46.673Z,7.90
2018-04-25T20:39:14.193Z,7.90
2018-04-25T20:41:41.732Z,7.90
2018-04-25T20:44:10.151Z,7.80
2018-04-25T20:46:37.660Z,7.80
2018-04-25T20:49:05.193Z,7.70
2018-04-25T20:51:32.768Z,7.60
2018-04-25T20:54:00.264Z,7.70
2018-04-25T20:56:27.796Z,7.70
2018-04-25T20:58:56.108Z,7.40
2018-04-25T21:01:23.692Z,7.40
2018-04-25T21:03:51.225Z,7.50
2018-04-25T21:06:18.765Z,7.60
2018-04-25T21:08:46.281Z,7.60
2018-04-25T21:11:13.800Z,7.60
2018-04-25T21:13:41.334Z,7.80
2018-04-25T21:16:08.859Z,7.90
2018-04-25T21:18:36.383Z,8.00
2018-04-25T21:21:03.934Z,8.00
2018-04-25T21:23:31.469Z,8.00
2018-04-25T21:25:58.996Z,8.10
2018-04-25T21:28:27.286Z,8.40
2018-04-25T21:30:55.716Z,8.40
2018-04-25T21:33:23.242Z,8.40
2018-04-25T21:35:50.825Z,8.40
2018-04-25T21:38:18.356Z,8.50
2018-04-25T21:40:45.867Z,8.60
2018-04-25T21:43:14.222Z,8.60
2018-04-25T21:45:41.778Z,8.50
2018-04-25T21:48:09.295Z,8.60
2018-04-25T21:50:38.093Z,8.80
2018-04-25T21:53:05.644Z,8.70
2018-04-25T21:55:33.927Z,8.70
2018-04-25T21:58:01.773Z,8.70
2018-04-25T22:00:29.289Z,8.80
2018-04-25T22:02:56.809Z,8.90
2018-04-25T22:05:24.326Z,8.90
2018-04-25T22:07:51.885Z,8.90
2018-04-25T22:10:19.417Z,8.90
2018-04-25T22:12:46.929Z,8.90
2018-04-25T22:15:15.260Z,9.00
2018-04-25T22:17:42.861Z,9.00
2018-04-25T22:20:11.148Z,9.00
2018-04-25T22:22:38.705Z,8.90
2018-04-25T22:25:06.992Z,9.00
2018-04-25T22:27:34.513Z,9.00
2018-04-25T22:30:02.179Z,9.00
2018-04-25T22:32:30.461Z,8.90
2018-04-25T22:34:58.755Z,8.90
2018-04-25T22:37:26.332Z,8.80
2018-04-25T22:39:53.900Z,8.90
2018-04-25T22:42:21.421Z,8.90
2018-04-25T22:44:49.727Z,9.00
2018-04-25T22:47:17.308Z,8.90
2018-04-25T22:49:44.881Z,8.90
2018-04-25T22:52:12.402Z,8.90
2018-04-25T22:54:39.927Z,8.90
2018-04-25T22:57:08.224Z,9.00
2018-04-25T22:59:35.766Z,8.90
2018-04-25T23:02:04.048Z,8.90
2018-04-25T23:04:31.583Z,8.90
2018-04-25T23:06:59.900Z,9.00
2018-04-25T23:09:27.566Z,9.00
2018-04-25T23:11:55.146Z,9.00
2018-04-25T23:14:22.685Z,9.00
2018-04-25T23:16:50.211Z,9.10
2018-04-25T23:19:18.629Z,9.10
2018-04-25T23:21:46.176Z,9.10
2018-04-25T23:24:13.749Z,9.10
2018-04-25T23:26:41.272Z,9.10
2018-04-25T23:29:08.815Z,9.00
2018-04-25T23:31:37.107Z,8.80
2018-04-25T23:34:04.633Z,8.80
2018-04-25T23:36:32.173Z,8.80
2018-04-25T23:38:59.678Z,8.70
2018-04-25T23:41:27.959Z,8.70
2018-04-25T23:43:55.516Z,8.60
2018-04-25T23:46:23.030Z,8.70
2018-04-25T23:48:50.703Z,8.70
2018-04-25T23:51:18.238Z,8.70
2018-04-25T23:53:45.751Z,8.70
2018-04-25T23:56:13.271Z,8.70
2018-04-25T23:58:40.813Z,8.70
